EDVK/KSF METAR and TAF weather

Enter ICAO airport designator
Station Type Date Time Source
EDVK METAR 2021/05/14 06:50 UTC NOAA

EDVK 140650Z 26005KT 220V290 9999 -RA OVC016 11/09 Q1007


Station Type Date Time Source
EDVK Decoded METAR 2021/05/14 06:50 UTC NOAA

Kassel / Calden, Germany (EDVK) 51-24N 009-23E 283M
May 14, 2021 - 02:50 AM EDT / 2021.05.14 0650 UTC
Wind: from the W (260 degrees) at 6 MPH (5 KT) (direction variable):0
Visibility: greater than 7 mile(s):0
Sky conditions: overcast
Weather: light rain
Temperature: 51 F (11 C)
Dew Point: 48 F (9 C)
Relative Humidity: 87%
Pressure (altimeter): 29.74 in. Hg (1007 hPa)
ob: EDVK 140650Z 26005KT 220V290 9999 -RA OVC016 11/09 Q1007
cycle: 7

Station Type Date Time Source
EDVK TAF 2011/03/23 07:09 UTC NOAA

TAF COR EDVK 230655Z 2307/2321 30002KT 3500 BR SCT025 PROB30
TEMPO 2307/2309 1400 BCFG
BECMG 2307/2310 01007KT 8000

Example: see airport list